sensor_id;sensor_type;location;lat;lon;timestamp;P1;durP1;ratioP1;P2;durP2;ratioP2
6626;SDS011;3349;49.830;8.748;2023-08-07T00:01:31;8.63;;;1.67;;
6626;SDS011;3349;49.830;8.748;2023-08-07T00:03:58;6.60;;;1.80;;
6626;SDS011;3349;49.830;8.748;2023-08-07T00:06:25;8.75;;;1.80;;
6626;SDS011;3349;49.830;8.748;2023-08-07T00:08:53;8.95;;;1.80;;
6626;SDS011;3349;49.830;8.748;2023-08-07T00:11:20;7.15;;;1.75;;
6626;SDS011;3349;49.830;8.748;2023-08-07T00:13:47;6.32;;;1.92;;
6626;SDS011;3349;49.830;8.748;2023-08-07T00:16:13;2.67;;;1.60;;
6626;SDS011;3349;49.830;8.748;2023-08-07T00:18:40;6.97;;;2.08;;
6626;SDS011;3349;49.830;8.748;2023-08-07T00:21:07;4.65;;;1.95;;
6626;SDS011;3349;49.830;8.748;2023-08-07T00:23:33;5.43;;;2.00;;
6626;SDS011;3349;49.830;8.748;2023-08-07T00:26:01;4.03;;;1.92;;
6626;SDS011;3349;49.830;8.748;2023-08-07T00:28:28;3.97;;;2.22;;
6626;SDS011;3349;49.830;8.748;2023-08-07T00:30:55;4.20;;;1.88;;
6626;SDS011;3349;49.830;8.748;2023-08-07T00:33:22;4.47;;;1.65;;
6626;SDS011;3349;49.830;8.748;2023-08-07T00:35:48;5.18;;;2.05;;
6626;SDS011;3349;49.830;8.748;2023-08-07T00:38:15;6.80;;;2.65;;
6626;SDS011;3349;49.830;8.748;2023-08-07T00:40:42;4.60;;;2.03;;
6626;SDS011;3349;49.830;8.748;2023-08-07T00:43:10;4.22;;;2.22;;
6626;SDS011;3349;49.830;8.748;2023-08-07T00:45:40;6.55;;;2.15;;
6626;SDS011;3349;49.830;8.748;2023-08-07T00:48:08;6.60;;;2.30;;
6626;SDS011;3349;49.830;8.748;2023-08-07T00:50:36;4.30;;;2.15;;
6626;SDS011;3349;49.830;8.748;2023-08-07T00:53:03;6.72;;;2.33;;
6626;SDS011;3349;49.830;8.748;2023-08-07T00:55:30;7.25;;;2.25;;
6626;SDS011;3349;49.830;8.748;2023-08-07T00:57:57;6.35;;;2.40;;
6626;SDS011;3349;49.830;8.748;2023-08-07T01:00:26;8.05;;;2.30;;
6626;SDS011;3349;49.830;8.748;2023-08-07T01:02:54;6.53;;;2.50;;
6626;SDS011;3349;49.830;8.748;2023-08-07T01:05:22;6.50;;;2.28;;
6626;SDS011;3349;49.830;8.748;2023-08-07T01:07:50;11.65;;;2.78;;
6626;SDS011;3349;49.830;8.748;2023-08-07T01:10:19;3.38;;;2.15;;
6626;SDS011;3349;49.830;8.748;2023-08-07T01:12:52;7.22;;;2.40;;
6626;SDS011;3349;49.830;8.748;2023-08-07T01:15:30;6.25;;;2.83;;
6626;SDS011;3349;49.830;8.748;2023-08-07T01:17:59;12.65;;;2.88;;
6626;SDS011;3349;49.830;8.748;2023-08-07T01:20:29;5.55;;;2.17;;
6626;SDS011;3349;49.830;8.748;2023-08-07T01:22:57;6.95;;;2.60;;
6626;SDS011;3349;49.830;8.748;2023-08-07T01:25:24;6.82;;;2.58;;
6626;SDS011;3349;49.830;8.748;2023-08-07T01:27:53;6.38;;;2.58;;
6626;SDS011;3349;49.830;8.748;2023-08-07T01:30:29;8.35;;;3.10;;
6626;SDS011;3349;49.830;8.748;2023-08-07T01:33:03;6.15;;;2.70;;
6626;SDS011;3349;49.830;8.748;2023-08-07T01:35:42;9.38;;;2.95;;
6626;SDS011;3349;49.830;8.748;2023-08-07T01:38:12;7.90;;;3.20;;
6626;SDS011;3349;49.830;8.748;2023-08-07T01:40:40;9.32;;;2.97;;
6626;SDS011;3349;49.830;8.748;2023-08-07T01:43:08;8.30;;;2.65;;
6626;SDS011;3349;49.830;8.748;2023-08-07T01:45:35;11.07;;;2.95;;
6626;SDS011;3349;49.830;8.748;2023-08-07T01:48:02;9.20;;;2.88;;
6626;SDS011;3349;49.830;8.748;2023-08-07T01:50:29;8.38;;;2.80;;
6626;SDS011;3349;49.830;8.748;2023-08-07T01:52:56;11.02;;;3.00;;
6626;SDS011;3349;49.830;8.748;2023-08-07T01:55:24;7.30;;;2.95;;
6626;SDS011;3349;49.830;8.748;2023-08-07T01:57:51;9.23;;;3.10;;
6626;SDS011;3349;49.830;8.748;2023-08-07T02:00:18;6.10;;;2.80;;
6626;SDS011;3349;49.830;8.748;2023-08-07T02:02:45;8.02;;;3.08;;
6626;SDS011;3349;49.830;8.748;2023-08-07T02:05:12;8.48;;;3.30;;
6626;SDS011;3349;49.830;8.748;2023-08-07T02:07:39;9.75;;;3.10;;
6626;SDS011;3349;49.830;8.748;2023-08-07T02:10:05;8.60;;;2.90;;
6626;SDS011;3349;49.830;8.748;2023-08-07T02:12:34;9.43;;;3.00;;
6626;SDS011;3349;49.830;8.748;2023-08-07T02:15:00;7.97;;;3.00;;
6626;SDS011;3349;49.830;8.748;2023-08-07T02:17:27;8.85;;;3.20;;
6626;SDS011;3349;49.830;8.748;2023-08-07T02:19:55;7.65;;;3.25;;
6626;SDS011;3349;49.830;8.748;2023-08-07T02:22:22;10.90;;;3.08;;
6626;SDS011;3349;49.830;8.748;2023-08-07T02:24:48;7.78;;;2.63;;
6626;SDS011;3349;49.830;8.748;2023-08-07T02:27:15;7.90;;;3.20;;
6626;SDS011;3349;49.830;8.748;2023-08-07T02:29:43;11.57;;;3.00;;
6626;SDS011;3349;49.830;8.748;2023-08-07T02:32:10;8.05;;;3.25;;
6626;SDS011;3349;49.830;8.748;2023-08-07T02:34:37;9.13;;;3.60;;
6626;SDS011;3349;49.830;8.748;2023-08-07T02:37:03;10.85;;;3.33;;
6626;SDS011;3349;49.830;8.748;2023-08-07T02:39:30;10.40;;;3.30;;
6626;SDS011;3349;49.830;8.748;2023-08-07T02:41:57;10.85;;;2.95;;
6626;SDS011;3349;49.830;8.748;2023-08-07T02:44:23;7.95;;;3.40;;
6626;SDS011;3349;49.830;8.748;2023-08-07T02:46:51;13.02;;;3.60;;
6626;SDS011;3349;49.830;8.748;2023-08-07T02:49:18;8.52;;;2.95;;
6626;SDS011;3349;49.830;8.748;2023-08-07T02:51:45;6.40;;;3.03;;
6626;SDS011;3349;49.830;8.748;2023-08-07T02:54:11;9.73;;;3.25;;
6626;SDS011;3349;49.830;8.748;2023-08-07T02:56:38;12.65;;;3.47;;
6626;SDS011;3349;49.830;8.748;2023-08-07T02:59:05;16.15;;;3.38;;
6626;SDS011;3349;49.830;8.748;2023-08-07T03:01:31;6.80;;;3.03;;
6626;SDS011;3349;49.830;8.748;2023-08-07T03:03:59;8.88;;;3.53;;
6626;SDS011;3349;49.830;8.748;2023-08-07T03:06:26;8.68;;;3.47;;
6626;SDS011;3349;49.830;8.748;2023-08-07T03:08:53;11.27;;;3.45;;
6626;SDS011;3349;49.830;8.748;2023-08-07T03:11:19;12.05;;;3.67;;
6626;SDS011;3349;49.830;8.748;2023-08-07T03:13:46;8.77;;;2.90;;
6626;SDS011;3349;49.830;8.748;2023-08-07T03:16:14;4.90;;;2.72;;
6626;SDS011;3349;49.830;8.748;2023-08-07T03:18:41;8.68;;;2.83;;
6626;SDS011;3349;49.830;8.748;2023-08-07T03:21:09;7.32;;;3.08;;
6626;SDS011;3349;49.830;8.748;2023-08-07T03:23:35;10.65;;;3.33;;
6626;SDS011;3349;49.830;8.748;2023-08-07T03:26:02;8.45;;;3.10;;
6626;SDS011;3349;49.830;8.748;2023-08-07T03:28:30;11.30;;;3.10;;
6626;SDS011;3349;49.830;8.748;2023-08-07T03:30:57;10.13;;;3.60;;
6626;SDS011;3349;49.830;8.748;2023-08-07T03:33:23;10.07;;;3.40;;
6626;SDS011;3349;49.830;8.748;2023-08-07T03:35:50;7.28;;;2.42;;
6626;SDS011;3349;49.830;8.748;2023-08-07T03:38:18;8.00;;;2.80;;
6626;SDS011;3349;49.830;8.748;2023-08-07T03:40:45;9.05;;;3.22;;
6626;SDS011;3349;49.830;8.748;2023-08-07T03:43:11;9.38;;;3.60;;
6626;SDS011;3349;49.830;8.748;2023-08-07T03:45:38;6.90;;;2.90;;
6626;SDS011;3349;49.830;8.748;2023-08-07T03:48:05;8.35;;;3.28;;
6626;SDS011;3349;49.830;8.748;2023-08-07T03:50:32;9.70;;;2.88;;
6626;SDS011;3349;49.830;8.748;2023-08-07T03:53:02;7.38;;;2.72;;
6626;SDS011;3349;49.830;8.748;2023-08-07T03:55:30;8.30;;;3.08;;
6626;SDS011;3349;49.830;8.748;2023-08-07T03:57:57;7.25;;;2.95;;
6626;SDS011;3349;49.830;8.748;2023-08-07T04:00:23;6.53;;;2.72;;
6626;SDS011;3349;49.830;8.748;2023-08-07T04:02:50;6.65;;;2.58;;
6626;SDS011;3349;49.830;8.748;2023-08-07T04:05:17;8.00;;;2.90;;
6626;SDS011;3349;49.830;8.748;2023-08-07T04:07:43;6.28;;;2.65;;
6626;SDS011;3349;49.830;8.748;2023-08-07T04:10:10;6.50;;;2.92;;
6626;SDS011;3349;49.830;8.748;2023-08-07T04:12:38;7.00;;;2.47;;
6626;SDS011;3349;49.830;8.748;2023-08-07T04:15:05;8.95;;;2.80;;
6626;SDS011;3349;49.830;8.748;2023-08-07T04:17:33;8.60;;;3.05;;
6626;SDS011;3349;49.830;8.748;2023-08-07T04:20:01;7.68;;;2.30;;
6626;SDS011;3349;49.830;8.748;2023-08-07T04:22:28;7.85;;;2.72;;
6626;SDS011;3349;49.830;8.748;2023-08-07T04:24:55;8.98;;;2.47;;
6626;SDS011;3349;49.830;8.748;2023-08-07T04:27:22;8.57;;;2.40;;
6626;SDS011;3349;49.830;8.748;2023-08-07T04:29:50;10.65;;;2.53;;
6626;SDS011;3349;49.830;8.748;2023-08-07T04:32:16;4.88;;;2.78;;
6626;SDS011;3349;49.830;8.748;2023-08-07T04:34:43;9.57;;;2.53;;
6626;SDS011;3349;49.830;8.748;2023-08-07T04:37:10;7.25;;;2.45;;
6626;SDS011;3349;49.830;8.748;2023-08-07T04:39:36;7.05;;;2.42;;
6626;SDS011;3349;49.830;8.748;2023-08-07T04:42:03;4.28;;;2.40;;
6626;SDS011;3349;49.830;8.748;2023-08-07T04:44:31;4.93;;;2.47;;
6626;SDS011;3349;49.830;8.748;2023-08-07T04:46:59;6.28;;;2.67;;
6626;SDS011;3349;49.830;8.748;2023-08-07T04:49:25;5.95;;;2.90;;
6626;SDS011;3349;49.830;8.748;2023-08-07T04:51:52;11.38;;;2.70;;
6626;SDS011;3349;49.830;8.748;2023-08-07T04:54:19;11.38;;;2.67;;
6626;SDS011;3349;49.830;8.748;2023-08-07T04:56:45;5.97;;;2.40;;
6626;SDS011;3349;49.830;8.748;2023-08-07T04:59:12;6.38;;;2.80;;
6626;SDS011;3349;49.830;8.748;2023-08-07T05:01:39;9.15;;;3.00;;
6626;SDS011;3349;49.830;8.748;2023-08-07T05:04:07;13.40;;;3.20;;
6626;SDS011;3349;49.830;8.748;2023-08-07T05:06:33;7.43;;;2.72;;
6626;SDS011;3349;49.830;8.748;2023-08-07T05:09:00;7.93;;;2.70;;
6626;SDS011;3349;49.830;8.748;2023-08-07T05:11:28;6.30;;;2.55;;
6626;SDS011;3349;49.830;8.748;2023-08-07T05:13:54;5.82;;;2.90;;
6626;SDS011;3349;49.830;8.748;2023-08-07T05:16:21;8.68;;;2.88;;
6626;SDS011;3349;49.830;8.748;2023-08-07T05:18:48;6.28;;;2.50;;
6626;SDS011;3349;49.830;8.748;2023-08-07T05:21:16;9.85;;;3.00;;
6626;SDS011;3349;49.830;8.748;2023-08-07T05:23:43;7.30;;;2.65;;
6626;SDS011;3349;49.830;8.748;2023-08-07T05:26:10;6.22;;;2.47;;
6626;SDS011;3349;49.830;8.748;2023-08-07T05:28:37;7.65;;;2.65;;
6626;SDS011;3349;49.830;8.748;2023-08-07T05:31:03;8.75;;;2.83;;
6626;SDS011;3349;49.830;8.748;2023-08-07T05:33:30;7.45;;;2.22;;
6626;SDS011;3349;49.830;8.748;2023-08-07T05:35:57;5.97;;;2.80;;
6626;SDS011;3349;49.830;8.748;2023-08-07T05:38:25;8.57;;;2.97;;
6626;SDS011;3349;49.830;8.748;2023-08-07T05:40:51;3.53;;;2.35;;
6626;SDS011;3349;49.830;8.748;2023-08-07T05:43:18;10.88;;;2.95;;
6626;SDS011;3349;49.830;8.748;2023-08-07T05:45:45;7.03;;;2.78;;
6626;SDS011;3349;49.830;8.748;2023-08-07T05:48:11;7.40;;;2.72;;
6626;SDS011;3349;49.830;8.748;2023-08-07T05:50:38;6.72;;;2.53;;
6626;SDS011;3349;49.830;8.748;2023-08-07T05:53:05;7.18;;;2.65;;
6626;SDS011;3349;49.830;8.748;2023-08-07T05:55:33;8.98;;;2.53;;
6626;SDS011;3349;49.830;8.748;2023-08-07T05:58:00;8.95;;;2.67;;
6626;SDS011;3349;49.830;8.748;2023-08-07T06:00:27;6.28;;;2.72;;
6626;SDS011;3349;49.830;8.748;2023-08-07T06:02:53;8.30;;;2.80;;
6626;SDS011;3349;49.830;8.748;2023-08-07T06:05:20;8.77;;;2.63;;
6626;SDS011;3349;49.830;8.748;2023-08-07T06:07:47;9.70;;;2.70;;
6626;SDS011;3349;49.830;8.748;2023-08-07T06:10:13;7.47;;;2.80;;
6626;SDS011;3349;49.830;8.748;2023-08-07T06:12:42;9.18;;;3.00;;
6626;SDS011;3349;49.830;8.748;2023-08-07T06:15:09;6.00;;;2.78;;
6626;SDS011;3349;49.830;8.748;2023-08-07T06:17:36;6.30;;;2.80;;
6626;SDS011;3349;49.830;8.748;2023-08-07T06:20:04;7.03;;;2.85;;
6626;SDS011;3349;49.830;8.748;2023-08-07T06:22:34;9.32;;;2.85;;
6626;SDS011;3349;49.830;8.748;2023-08-07T06:25:00;11.90;;;2.90;;
6626;SDS011;3349;49.830;8.748;2023-08-07T06:27:27;7.25;;;3.00;;
6626;SDS011;3349;49.830;8.748;2023-08-07T06:29:56;6.05;;;2.80;;
6626;SDS011;3349;49.830;8.748;2023-08-07T06:32:24;6.38;;;2.85;;
6626;SDS011;3349;49.830;8.748;2023-08-07T06:34:50;9.27;;;2.42;;
6626;SDS011;3349;49.830;8.748;2023-08-07T06:37:17;7.20;;;2.47;;
6626;SDS011;3349;49.830;8.748;2023-08-07T06:39:44;8.63;;;2.78;;
6626;SDS011;3349;49.830;8.748;2023-08-07T06:42:12;8.13;;;2.83;;
6626;SDS011;3349;49.830;8.748;2023-08-07T06:44:38;6.53;;;3.13;;
6626;SDS011;3349;49.830;8.748;2023-08-07T06:47:07;4.78;;;2.67;;
6626;SDS011;3349;49.830;8.748;2023-08-07T06:49:34;10.13;;;2.72;;
6626;SDS011;3349;49.830;8.748;2023-08-07T06:52:01;5.88;;;2.65;;
6626;SDS011;3349;49.830;8.748;2023-08-07T06:54:28;8.77;;;2.80;;
6626;SDS011;3349;49.830;8.748;2023-08-07T06:56:54;4.35;;;2.72;;
6626;SDS011;3349;49.830;8.748;2023-08-07T06:59:21;4.32;;;2.65;;
6626;SDS011;3349;49.830;8.748;2023-08-07T07:01:48;9.82;;;3.15;;
6626;SDS011;3349;49.830;8.748;2023-08-07T07:04:17;7.93;;;2.70;;
6626;SDS011;3349;49.830;8.748;2023-08-07T07:06:44;8.40;;;2.50;;
6626;SDS011;3349;49.830;8.748;2023-08-07T07:09:10;4.53;;;2.50;;
6626;SDS011;3349;49.830;8.748;2023-08-07T07:11:41;7.75;;;2.85;;
6626;SDS011;3349;49.830;8.748;2023-08-07T07:14:08;5.68;;;2.75;;
6626;SDS011;3349;49.830;8.748;2023-08-07T07:16:35;6.07;;;2.53;;
6626;SDS011;3349;49.830;8.748;2023-08-07T07:19:03;9.65;;;2.60;;
6626;SDS011;3349;49.830;8.748;2023-08-07T07:21:32;6.60;;;2.50;;
6626;SDS011;3349;49.830;8.748;2023-08-07T07:23:59;8.07;;;3.03;;
6626;SDS011;3349;49.830;8.748;2023-08-07T07:26:26;10.90;;;3.20;;
6626;SDS011;3349;49.830;8.748;2023-08-07T07:28:53;7.88;;;3.17;;
6626;SDS011;3349;49.830;8.748;2023-08-07T07:31:20;6.28;;;2.97;;
6626;SDS011;3349;49.830;8.748;2023-08-07T07:33:47;8.95;;;2.92;;
6626;SDS011;3349;49.830;8.748;2023-08-07T07:36:15;6.03;;;3.03;;
6626;SDS011;3349;49.830;8.748;2023-08-07T07:38:44;6.53;;;2.58;;
6626;SDS011;3349;49.830;8.748;2023-08-07T07:41:11;3.28;;;2.28;;
6626;SDS011;3349;49.830;8.748;2023-08-07T07:43:38;6.80;;;2.75;;
6626;SDS011;3349;49.830;8.748;2023-08-07T07:46:05;4.32;;;2.40;;
6626;SDS011;3349;49.830;8.748;2023-08-07T07:48:31;4.70;;;2.88;;
6626;SDS011;3349;49.830;8.748;2023-08-07T07:50:58;7.78;;;2.75;;
6626;SDS011;3349;49.830;8.748;2023-08-07T07:53:25;6.88;;;2.40;;
6626;SDS011;3349;49.830;8.748;2023-08-07T07:55:54;5.00;;;2.50;;
6626;SDS011;3349;49.830;8.748;2023-08-07T07:58:21;8.88;;;2.67;;
6626;SDS011;3349;49.830;8.748;2023-08-07T08:00:48;4.63;;;2.40;;
6626;SDS011;3349;49.830;8.748;2023-08-07T08:03:17;7.38;;;2.40;;
6626;SDS011;3349;49.830;8.748;2023-08-07T08:05:44;5.70;;;2.38;;
6626;SDS011;3349;49.830;8.748;2023-08-07T08:08:11;4.05;;;2.30;;
6626;SDS011;3349;49.830;8.748;2023-08-07T08:10:37;4.07;;;2.22;;
6626;SDS011;3349;49.830;8.748;2023-08-07T08:13:05;6.75;;;2.50;;
6626;SDS011;3349;49.830;8.748;2023-08-07T08:15:34;3.72;;;2.60;;
6626;SDS011;3349;49.830;8.748;2023-08-07T08:18:01;6.15;;;2.28;;
6626;SDS011;3349;49.830;8.748;2023-08-07T08:20:28;6.15;;;2.58;;
6626;SDS011;3349;49.830;8.748;2023-08-07T08:22:56;8.73;;;3.28;;
6626;SDS011;3349;49.830;8.748;2023-08-07T08:25:22;3.22;;;2.17;;
6626;SDS011;3349;49.830;8.748;2023-08-07T08:27:49;5.70;;;2.40;;
6626;SDS011;3349;49.830;8.748;2023-08-07T08:30:17;6.97;;;2.40;;
6626;SDS011;3349;49.830;8.748;2023-08-07T08:32:44;8.15;;;2.45;;
6626;SDS011;3349;49.830;8.748;2023-08-07T08:35:10;4.78;;;2.45;;
6626;SDS011;3349;49.830;8.748;2023-08-07T08:37:37;4.95;;;2.63;;
6626;SDS011;3349;49.830;8.748;2023-08-07T08:40:05;5.38;;;2.38;;
6626;SDS011;3349;49.830;8.748;2023-08-07T08:42:35;4.50;;;2.35;;
6626;SDS011;3349;49.830;8.748;2023-08-07T08:45:05;4.50;;;2.35;;
6626;SDS011;3349;49.830;8.748;2023-08-07T08:47:37;6.97;;;2.65;;
6626;SDS011;3349;49.830;8.748;2023-08-07T08:50:06;6.90;;;2.97;;
6626;SDS011;3349;49.830;8.748;2023-08-07T08:52:34;9.27;;;2.50;;
6626;SDS011;3349;49.830;8.748;2023-08-07T08:55:02;5.75;;;2.63;;
6626;SDS011;3349;49.830;8.748;2023-08-07T08:57:30;9.07;;;3.08;;
6626;SDS011;3349;49.830;8.748;2023-08-07T08:59:58;3.22;;;2.38;;
6626;SDS011;3349;49.830;8.748;2023-08-07T09:02:26;4.38;;;2.63;;
6626;SDS011;3349;49.830;8.748;2023-08-07T09:04:55;5.60;;;2.88;;
6626;SDS011;3349;49.830;8.748;2023-08-07T09:07:22;4.38;;;2.67;;
6626;SDS011;3349;49.830;8.748;2023-08-07T09:09:49;8.27;;;2.78;;
6626;SDS011;3349;49.830;8.748;2023-08-07T09:12:20;4.13;;;2.60;;
6626;SDS011;3349;49.830;8.748;2023-08-07T09:14:53;6.55;;;2.85;;
6626;SDS011;3349;49.830;8.748;2023-08-07T09:17:23;4.32;;;2.60;;
6626;SDS011;3349;49.830;8.748;2023-08-07T09:19:53;4.40;;;2.47;;
6626;SDS011;3349;49.830;8.748;2023-08-07T09:22:21;6.00;;;2.90;;
6626;SDS011;3349;49.830;8.748;2023-08-07T09:24:47;4.93;;;2.90;;
6626;SDS011;3349;49.830;8.748;2023-08-07T09:27:15;5.78;;;2.63;;
6626;SDS011;3349;49.830;8.748;2023-08-07T09:29:42;6.03;;;2.65;;
6626;SDS011;3349;49.830;8.748;2023-08-07T09:32:11;6.07;;;2.60;;
6626;SDS011;3349;49.830;8.748;2023-08-07T09:34:38;8.57;;;2.50;;
6626;SDS011;3349;49.830;8.748;2023-08-07T09:37:06;7.97;;;2.88;;
6626;SDS011;3349;49.830;8.748;2023-08-07T09:39:35;2.80;;;2.35;;
6626;SDS011;3349;49.830;8.748;2023-08-07T09:42:01;5.05;;;2.58;;
6626;SDS011;3349;49.830;8.748;2023-08-07T09:44:34;4.45;;;2.53;;
6626;SDS011;3349;49.830;8.748;2023-08-07T09:47:01;6.60;;;2.80;;
6626;SDS011;3349;49.830;8.748;2023-08-07T09:49:37;6.07;;;2.60;;
6626;SDS011;3349;49.830;8.748;2023-08-07T09:52:05;5.90;;;2.22;;
6626;SDS011;3349;49.830;8.748;2023-08-07T09:54:34;7.70;;;2.63;;
6626;SDS011;3349;49.830;8.748;2023-08-07T09:57:02;6.55;;;3.05;;
6626;SDS011;3349;49.830;8.748;2023-08-07T09:59:29;6.75;;;2.80;;
6626;SDS011;3349;49.830;8.748;2023-08-07T10:01:56;5.00;;;2.72;;
6626;SDS011;3349;49.830;8.748;2023-08-07T10:04:23;6.88;;;2.78;;
6626;SDS011;3349;49.830;8.748;2023-08-07T10:06:50;6.43;;;2.83;;
6626;SDS011;3349;49.830;8.748;2023-08-07T10:09:18;4.25;;;2.47;;
6626;SDS011;3349;49.830;8.748;2023-08-07T10:11:46;5.07;;;2.78;;
6626;SDS011;3349;49.830;8.748;2023-08-07T10:14:14;10.23;;;3.08;;
6626;SDS011;3349;49.830;8.748;2023-08-07T10:16:41;7.38;;;3.30;;
6626;SDS011;3349;49.830;8.748;2023-08-07T10:19:09;8.85;;;3.03;;
6626;SDS011;3349;49.830;8.748;2023-08-07T10:21:38;5.80;;;3.70;;
6626;SDS011;3349;49.830;8.748;2023-08-07T10:24:05;7.88;;;3.08;;
6626;SDS011;3349;49.830;8.748;2023-08-07T10:26:33;8.18;;;3.35;;
6626;SDS011;3349;49.830;8.748;2023-08-07T10:29:05;5.28;;;3.00;;
6626;SDS011;3349;49.830;8.748;2023-08-07T10:31:36;4.25;;;2.55;;
6626;SDS011;3349;49.830;8.748;2023-08-07T10:34:07;7.18;;;2.90;;
6626;SDS011;3349;49.830;8.748;2023-08-07T10:36:34;5.35;;;3.00;;
6626;SDS011;3349;49.830;8.748;2023-08-07T10:39:07;7.65;;;3.33;;
6626;SDS011;3349;49.830;8.748;2023-08-07T10:41:38;6.00;;;2.72;;
6626;SDS011;3349;49.830;8.748;2023-08-07T10:44:17;9.00;;;3.13;;
6626;SDS011;3349;49.830;8.748;2023-08-07T10:46:48;6.43;;;2.90;;
6626;SDS011;3349;49.830;8.748;2023-08-07T10:49:29;7.15;;;3.20;;
6626;SDS011;3349;49.830;8.748;2023-08-07T10:51:57;4.28;;;2.90;;
6626;SDS011;3349;49.830;8.748;2023-08-07T10:54:24;5.85;;;2.80;;
6626;SDS011;3349;49.830;8.748;2023-08-07T10:56:52;6.05;;;2.88;;
6626;SDS011;3349;49.830;8.748;2023-08-07T10:59:21;4.85;;;2.75;;
6626;SDS011;3349;49.830;8.748;2023-08-07T11:01:50;5.70;;;2.92;;
6626;SDS011;3349;49.830;8.748;2023-08-07T11:04:18;5.82;;;2.85;;
6626;SDS011;3349;49.830;8.748;2023-08-07T11:06:46;7.55;;;3.20;;
6626;SDS011;3349;49.830;8.748;2023-08-07T11:09:14;3.38;;;2.28;;
6626;SDS011;3349;49.830;8.748;2023-08-07T11:11:41;3.88;;;2.35;;
6626;SDS011;3349;49.830;8.748;2023-08-07T11:14:10;5.63;;;2.85;;
6626;SDS011;3349;49.830;8.748;2023-08-07T11:16:40;4.00;;;2.38;;
6626;SDS011;3349;49.830;8.748;2023-08-07T11:19:07;6.63;;;2.50;;
6626;SDS011;3349;49.830;8.748;2023-08-07T11:21:34;7.25;;;3.03;;
6626;SDS011;3349;49.830;8.748;2023-08-07T11:24:02;3.03;;;2.45;;
6626;SDS011;3349;49.830;8.748;2023-08-07T11:26:29;5.75;;;2.53;;
6626;SDS011;3349;49.830;8.748;2023-08-07T11:28:56;4.95;;;2.50;;
6626;SDS011;3349;49.830;8.748;2023-08-07T11:31:23;7.50;;;2.92;;
6626;SDS011;3349;49.830;8.748;2023-08-07T11:33:52;4.03;;;2.40;;
6626;SDS011;3349;49.830;8.748;2023-08-07T11:36:19;2.85;;;2.30;;
6626;SDS011;3349;49.830;8.748;2023-08-07T11:38:45;5.75;;;2.22;;
6626;SDS011;3349;49.830;8.748;2023-08-07T11:41:13;4.55;;;2.20;;
6626;SDS011;3349;49.830;8.748;2023-08-07T11:43:42;5.50;;;2.50;;
6626;SDS011;3349;49.830;8.748;2023-08-07T11:46:10;6.57;;;2.83;;
6626;SDS011;3349;49.830;8.748;2023-08-07T11:48:38;3.83;;;2.40;;
6626;SDS011;3349;49.830;8.748;2023-08-07T11:51:07;3.35;;;2.25;;
6626;SDS011;3349;49.830;8.748;2023-08-07T11:53:34;3.65;;;2.55;;
6626;SDS011;3349;49.830;8.748;2023-08-07T11:56:02;5.25;;;2.42;;
6626;SDS011;3349;49.830;8.748;2023-08-07T11:58:33;7.85;;;2.50;;
6626;SDS011;3349;49.830;8.748;2023-08-07T12:01:03;3.97;;;2.80;;
6626;SDS011;3349;49.830;8.748;2023-08-07T12:03:31;6.80;;;2.70;;
6626;SDS011;3349;49.830;8.748;2023-08-07T12:06:03;5.35;;;2.53;;
6626;SDS011;3349;49.830;8.748;2023-08-07T12:08:33;4.15;;;2.47;;
6626;SDS011;3349;49.830;8.748;2023-08-07T12:11:01;6.18;;;2.85;;
6626;SDS011;3349;49.830;8.748;2023-08-07T12:13:29;5.50;;;2.30;;
6626;SDS011;3349;49.830;8.748;2023-08-07T12:15:57;5.65;;;2.67;;
6626;SDS011;3349;49.830;8.748;2023-08-07T12:18:24;7.53;;;2.72;;
6626;SDS011;3349;49.830;8.748;2023-08-07T12:20:53;4.32;;;2.75;;
6626;SDS011;3349;49.830;8.748;2023-08-07T12:23:23;4.97;;;2.78;;
6626;SDS011;3349;49.830;8.748;2023-08-07T12:25:51;4.00;;;2.70;;
6626;SDS011;3349;49.830;8.748;2023-08-07T12:28:18;7.45;;;2.67;;
6626;SDS011;3349;49.830;8.748;2023-08-07T12:30:46;6.68;;;2.60;;
6626;SDS011;3349;49.830;8.748;2023-08-07T12:33:13;6.55;;;2.75;;
6626;SDS011;3349;49.830;8.748;2023-08-07T12:35:40;8.02;;;2.78;;
6626;SDS011;3349;49.830;8.748;2023-08-07T12:38:07;4.40;;;3.08;;
6626;SDS011;3349;49.830;8.748;2023-08-07T12:40:34;5.45;;;2.85;;
6626;SDS011;3349;49.830;8.748;2023-08-07T12:43:03;6.30;;;2.70;;
6626;SDS011;3349;49.830;8.748;2023-08-07T12:45:30;7.78;;;2.88;;
6626;SDS011;3349;49.830;8.748;2023-08-07T12:47:57;4.68;;;2.88;;
6626;SDS011;3349;49.830;8.748;2023-08-07T12:50:24;4.88;;;3.20;;
6626;SDS011;3349;49.830;8.748;2023-08-07T12:52:51;4.57;;;2.85;;
6626;SDS011;3349;49.830;8.748;2023-08-07T12:55:18;8.77;;;3.40;;
6626;SDS011;3349;49.830;8.748;2023-08-07T12:57:45;4.30;;;2.63;;
6626;SDS011;3349;49.830;8.748;2023-08-07T13:00:14;7.90;;;2.90;;
6626;SDS011;3349;49.830;8.748;2023-08-07T13:02:41;4.90;;;2.60;;
6626;SDS011;3349;49.830;8.748;2023-08-07T13:05:09;5.78;;;2.90;;
6626;SDS011;3349;49.830;8.748;2023-08-07T13:07:37;4.53;;;2.60;;
6626;SDS011;3349;49.830;8.748;2023-08-07T13:10:05;3.65;;;2.30;;
6626;SDS011;3349;49.830;8.748;2023-08-07T13:12:34;5.70;;;2.70;;
6626;SDS011;3349;49.830;8.748;2023-08-07T13:15:01;4.25;;;2.70;;
6626;SDS011;3349;49.830;8.748;2023-08-07T13:17:30;4.03;;;2.42;;
6626;SDS011;3349;49.830;8.748;2023-08-07T13:19:57;5.93;;;2.33;;
6626;SDS011;3349;49.830;8.748;2023-08-07T13:22:24;6.28;;;2.42;;
6626;SDS011;3349;49.830;8.748;2023-08-07T13:24:50;5.20;;;2.47;;
6626;SDS011;3349;49.830;8.748;2023-08-07T13:27:17;5.10;;;2.33;;
6626;SDS011;3349;49.830;8.748;2023-08-07T13:29:44;3.70;;;2.47;;
6626;SDS011;3349;49.830;8.748;2023-08-07T13:32:11;4.90;;;2.25;;
6626;SDS011;3349;49.830;8.748;2023-08-07T13:34:39;4.68;;;2.90;;
6626;SDS011;3349;49.830;8.748;2023-08-07T13:37:06;5.43;;;2.45;;
6626;SDS011;3349;49.830;8.748;2023-08-07T13:39:32;3.30;;;2.53;;
6626;SDS011;3349;49.830;8.748;2023-08-07T13:41:59;3.30;;;2.17;;
6626;SDS011;3349;49.830;8.748;2023-08-07T13:44:26;3.15;;;2.40;;
6626;SDS011;3349;49.830;8.748;2023-08-07T13:46:53;6.88;;;2.60;;
6626;SDS011;3349;49.830;8.748;2023-08-07T13:49:20;5.63;;;2.42;;
6626;SDS011;3349;49.830;8.748;2023-08-07T13:51:49;3.03;;;2.30;;
6626;SDS011;3349;49.830;8.748;2023-08-07T13:54:16;4.18;;;2.28;;
6626;SDS011;3349;49.830;8.748;2023-08-07T13:56:43;3.50;;;2.33;;
6626;SDS011;3349;49.830;8.748;2023-08-07T13:59:10;5.35;;;2.42;;
6626;SDS011;3349;49.830;8.748;2023-08-07T14:01:36;4.57;;;2.55;;
6626;SDS011;3349;49.830;8.748;2023-08-07T14:04:03;4.93;;;2.38;;
6626;SDS011;3349;49.830;8.748;2023-08-07T14:06:31;5.32;;;2.67;;
6626;SDS011;3349;49.830;8.748;2023-08-07T14:08:59;3.45;;;2.58;;
6626;SDS011;3349;49.830;8.748;2023-08-07T14:11:26;4.28;;;2.78;;
6626;SDS011;3349;49.830;8.748;2023-08-07T14:13:55;4.15;;;2.50;;
6626;SDS011;3349;49.830;8.748;2023-08-07T14:16:22;3.13;;;2.25;;
6626;SDS011;3349;49.830;8.748;2023-08-07T14:18:49;4.78;;;2.35;;
6626;SDS011;3349;49.830;8.748;2023-08-07T14:21:16;3.28;;;2.42;;
6626;SDS011;3349;49.830;8.748;2023-08-07T14:23:43;2.90;;;2.45;;
6626;SDS011;3349;49.830;8.748;2023-08-07T14:26:11;5.32;;;2.28;;
6626;SDS011;3349;49.830;8.748;2023-08-07T14:28:38;3.03;;;2.60;;
6626;SDS011;3349;49.830;8.748;2023-08-07T14:31:05;4.35;;;2.63;;
6626;SDS011;3349;49.830;8.748;2023-08-07T14:33:32;5.95;;;2.50;;
6626;SDS011;3349;49.830;8.748;2023-08-07T14:36:00;5.15;;;2.95;;
6626;SDS011;3349;49.830;8.748;2023-08-07T14:38:26;5.40;;;2.60;;
6626;SDS011;3349;49.830;8.748;2023-08-07T14:40:53;4.40;;;2.50;;
6626;SDS011;3349;49.830;8.748;2023-08-07T14:43:21;3.72;;;2.72;;
6626;SDS011;3349;49.830;8.748;2023-08-07T14:45:48;4.97;;;2.67;;
6626;SDS011;3349;49.830;8.748;2023-08-07T14:48:15;4.80;;;2.78;;
6626;SDS011;3349;49.830;8.748;2023-08-07T14:50:42;4.25;;;2.50;;
6626;SDS011;3349;49.830;8.748;2023-08-07T14:53:09;4.93;;;2.50;;
6626;SDS011;3349;49.830;8.748;2023-08-07T14:55:36;3.65;;;2.35;;
6626;SDS011;3349;49.830;8.748;2023-08-07T14:58:03;3.63;;;2.53;;
6626;SDS011;3349;49.830;8.748;2023-08-07T15:00:31;4.38;;;2.58;;
6626;SDS011;3349;49.830;8.748;2023-08-07T15:02:57;4.60;;;2.60;;
6626;SDS011;3349;49.830;8.748;2023-08-07T15:05:24;2.72;;;2.03;;
6626;SDS011;3349;49.830;8.748;2023-08-07T15:07:51;2.72;;;2.20;;
6626;SDS011;3349;49.830;8.748;2023-08-07T15:10:18;5.03;;;2.28;;
6626;SDS011;3349;49.830;8.748;2023-08-07T15:12:46;3.22;;;2.20;;
6626;SDS011;3349;49.830;8.748;2023-08-07T15:15:13;3.20;;;2.20;;
6626;SDS011;3349;49.830;8.748;2023-08-07T15:17:41;4.78;;;2.63;;